BAW99C EDDB-EGLL
Flight info
| Callsign | BAW99C |
|---|---|
| Flight time | 1h 28m |
| Altitude | 36000 |
| Route | SUKI4B SUKIP Y206 BUREL P203 HLZ L980 ROBEG ABNED L980 LOGAN LOGA2H |
| Aircraft | A21N/M-SDE3FGHIRWY/LB1 |
Departure
| Time | 2026-05-05 20:29 |
|---|---|
| Airport | Berlin Brandenburg Airport (EDDB) |
Arrival
| Time | 2026-05-05 21:57 |
|---|---|
| Airport | London Heathrow Airport (EGLL) |
| Time | Latitude | Longitude | Altitude | Speed | Heading |
|---|---|---|---|---|---|
| 2026-05-05 19:38 | 52.36319 | 13.50626 | 166 ft | 0 kts | 68° |
| 2026-05-05 20:15 | 52.36318 | 13.50624 | 166 ft | 1 kts | 68° |
| 2026-05-05 20:16 | 52.36313 | 13.50602 | 166 ft | 2 kts | 68° |
| 2026-05-05 20:16 | 52.36307 | 13.50579 | 166 ft | 2 kts | 68° |
| 2026-05-05 20:16 | 52.36302 | 13.50556 | 166 ft | 2 kts | 68° |
| 2026-05-05 20:16 | 52.36296 | 13.50533 | 166 ft | 2 kts | 68° |
| 2026-05-05 20:17 | 52.36296 | 13.50508 | 166 ft | 2 kts | 112° |
| 2026-05-05 20:17 | 52.36304 | 13.50489 | 166 ft | 2 kts | 146° |
| 2026-05-05 20:17 | 52.36311 | 13.50483 | 166 ft | 1 kts | 163° |
| 2026-05-05 20:17 | 52.36315 | 13.50481 | 166 ft | 0 kts | 159° |
| 2026-05-05 20:20 | 52.36313 | 13.50482 | 166 ft | 0 kts | 158° |
| 2026-05-05 20:20 | 52.36302 | 13.50490 | 166 ft | 2 kts | 157° |
| 2026-05-05 20:20 | 52.36273 | 13.50509 | 166 ft | 5 kts | 157° |
| 2026-05-05 20:20 | 52.36225 | 13.50540 | 165 ft | 8 kts | 159° |
| 2026-05-05 20:21 | 52.36160 | 13.50580 | 166 ft | 11 kts | 159° |
| 2026-05-05 20:21 | 52.36081 | 13.50629 | 166 ft | 12 kts | 158° |
| 2026-05-05 20:21 | 52.35998 | 13.50682 | 166 ft | 13 kts | 159° |
| 2026-05-05 20:21 | 52.35925 | 13.50724 | 165 ft | 8 kts | 172° |
| 2026-05-05 20:22 | 52.35877 | 13.50674 | 166 ft | 9 kts | 234° |
| 2026-05-05 20:22 | 52.35829 | 13.50633 | 166 ft | 2 kts | 157° |
| 2026-05-05 20:22 | 52.35816 | 13.50641 | 166 ft | 2 kts | 160° |
| 2026-05-05 20:22 | 52.35796 | 13.50652 | 166 ft | 3 kts | 159° |
| 2026-05-05 20:23 | 52.35768 | 13.50669 | 166 ft | 4 kts | 159° |
| 2026-05-05 20:23 | 52.35735 | 13.50690 | 166 ft | 5 kts | 162° |
| 2026-05-05 20:23 | 52.35693 | 13.50678 | 166 ft | 7 kts | 217° |
| 2026-05-05 20:23 | 52.35668 | 13.50586 | 166 ft | 9 kts | 249° |
| 2026-05-05 20:24 | 52.35643 | 13.50477 | 165 ft | 10 kts | 249° |
| 2026-05-05 20:24 | 52.35615 | 13.50359 | 166 ft | 11 kts | 248° |
| 2026-05-05 20:24 | 52.35585 | 13.50234 | 166 ft | 12 kts | 248° |
| 2026-05-05 20:24 | 52.35554 | 13.50103 | 165 ft | 12 kts | 248° |
| 2026-05-05 20:25 | 52.35521 | 13.49965 | 166 ft | 13 kts | 248° |
| 2026-05-05 20:25 | 52.35487 | 13.49822 | 166 ft | 13 kts | 248° |
| 2026-05-05 20:25 | 52.35451 | 13.49669 | 165 ft | 15 kts | 248° |
| 2026-05-05 20:25 | 52.35410 | 13.49496 | 166 ft | 17 kts | 248° |
| 2026-05-05 20:26 | 52.35366 | 13.49314 | 166 ft | 17 kts | 248° |
| 2026-05-05 20:26 | 52.35323 | 13.49132 | 166 ft | 17 kts | 248° |
| 2026-05-05 20:26 | 52.35280 | 13.48950 | 166 ft | 17 kts | 248° |
| 2026-05-05 20:26 | 52.35237 | 13.48769 | 166 ft | 17 kts | 249° |
| 2026-05-05 20:27 | 52.35195 | 13.48590 | 166 ft | 16 kts | 248° |
| 2026-05-05 20:27 | 52.35148 | 13.48522 | 166 ft | 9 kts | 167° |
| 2026-05-05 20:27 | 52.35102 | 13.48599 | 166 ft | 10 kts | 94° |
| 2026-05-05 20:27 | 52.35092 | 13.48719 | 166 ft | 10 kts | 98° |
| 2026-05-05 20:28 | 52.35080 | 13.48844 | 166 ft | 11 kts | 98° |
| 2026-05-05 20:28 | 52.35065 | 13.48978 | 166 ft | 12 kts | 105° |
| 2026-05-05 20:28 | 52.35081 | 13.49109 | 165 ft | 12 kts | 68° |
| 2026-05-05 20:28 | 52.35157 | 13.49424 | 166 ft | 66 kts | 68° |
| 2026-05-05 20:29 | 52.35419 | 13.50529 | 166 ft | 141 kts | 68° |
| 2026-05-05 20:29 | 52.35823 | 13.52237 | 525 ft | 169 kts | 67° |
| 2026-05-05 20:29 | 52.36107 | 13.54037 | 1433 ft | 165 kts | 86° |
| 2026-05-05 20:29 | 52.35780 | 13.55744 | 2287 ft | 169 kts | 123° |
| 2026-05-05 20:30 | 52.34708 | 13.56662 | 2788 ft | 189 kts | 169° |
| 2026-05-05 20:30 | 52.33338 | 13.56602 | 3285 ft | 205 kts | 188° |
| 2026-05-05 20:30 | 52.32023 | 13.55606 | 3796 ft | 220 kts | 216° |
| 2026-05-05 20:30 | 52.30846 | 13.53916 | 4333 ft | 234 kts | 220° |
| 2026-05-05 20:31 | 52.29580 | 13.52091 | 4864 ft | 251 kts | 219° |
| 2026-05-05 20:31 | 52.28205 | 13.50221 | 5490 ft | 265 kts | 218° |
| 2026-05-05 20:31 | 52.26829 | 13.48159 | 6100 ft | 278 kts | 232° |
| 2026-05-05 20:31 | 52.26046 | 13.45294 | 6952 ft | 282 kts | 260° |
| 2026-05-05 20:32 | 52.26038 | 13.42108 | 7750 ft | 286 kts | 273° |
| 2026-05-05 20:32 | 52.26173 | 13.38881 | 8601 ft | 289 kts | 273° |
| 2026-05-05 20:32 | 52.26281 | 13.35629 | 9450 ft | 290 kts | 270° |
| 2026-05-05 20:32 | 52.26317 | 13.32379 | 10248 ft | 292 kts | 269° |
| 2026-05-05 20:33 | 52.26326 | 13.29041 | 11007 ft | 296 kts | 268° |
| 2026-05-05 20:33 | 52.26320 | 13.25721 | 11691 ft | 300 kts | 268° |
| 2026-05-05 20:33 | 52.26077 | 13.22347 | 12396 ft | 302 kts | 253° |
| 2026-05-05 20:33 | 52.25336 | 13.19107 | 12928 ft | 311 kts | 242° |
| 2026-05-05 20:34 | 52.24205 | 13.16013 | 13278 ft | 325 kts | 236° |
| 2026-05-05 20:34 | 52.22967 | 13.12885 | 13683 ft | 339 kts | 236° |
| 2026-05-05 20:34 | 52.21670 | 13.09589 | 14012 ft | 354 kts | 236° |
| 2026-05-05 20:34 | 52.20427 | 13.06050 | 14458 ft | 366 kts | 246° |
| 2026-05-05 20:35 | 52.20000 | 13.01994 | 15048 ft | 373 kts | 272° |
| 2026-05-05 20:35 | 52.20405 | 12.97829 | 15814 ft | 374 kts | 281° |
| 2026-05-05 20:35 | 52.20954 | 12.93710 | 16478 ft | 376 kts | 281° |
| 2026-05-05 20:35 | 52.21489 | 12.89534 | 17120 ft | 379 kts | 280° |
| 2026-05-05 20:36 | 52.21989 | 12.85305 | 17755 ft | 381 kts | 279° |
| 2026-05-05 20:36 | 52.22451 | 12.81115 | 18375 ft | 383 kts | 279° |
| 2026-05-05 20:36 | 52.22904 | 12.76835 | 18984 ft | 385 kts | 278° |
| 2026-05-05 20:36 | 52.23344 | 12.72550 | 19566 ft | 387 kts | 278° |
| 2026-05-05 20:37 | 52.23787 | 12.68181 | 20154 ft | 389 kts | 278° |
| 2026-05-05 20:37 | 52.24222 | 12.63846 | 20729 ft | 391 kts | 278° |
| 2026-05-05 20:37 | 52.24658 | 12.59456 | 21276 ft | 393 kts | 278° |
| 2026-05-05 20:37 | 52.25095 | 12.55036 | 21790 ft | 396 kts | 277° |
| 2026-05-05 20:38 | 52.25531 | 12.50617 | 22301 ft | 398 kts | 277° |
| 2026-05-05 20:38 | 52.26015 | 12.46206 | 22821 ft | 401 kts | 280° |
| 2026-05-05 20:38 | 52.26625 | 12.41798 | 23325 ft | 403 kts | 281° |
| 2026-05-05 20:38 | 52.27265 | 12.37309 | 23794 ft | 405 kts | 281° |
| 2026-05-05 20:39 | 52.27903 | 12.32839 | 24236 ft | 408 kts | 280° |
| 2026-05-05 20:39 | 52.28541 | 12.28332 | 24679 ft | 410 kts | 280° |
| 2026-05-05 20:39 | 52.29177 | 12.23809 | 25106 ft | 413 kts | 279° |
| 2026-05-05 20:39 | 52.29819 | 12.19209 | 25521 ft | 416 kts | 279° |
| 2026-05-05 20:40 | 52.30453 | 12.14642 | 25924 ft | 418 kts | 279° |
| 2026-05-05 20:40 | 52.31098 | 12.09985 | 26283 ft | 421 kts | 279° |
| 2026-05-05 20:40 | 52.31741 | 12.05323 | 26661 ft | 424 kts | 279° |
| 2026-05-05 20:40 | 52.32384 | 12.00640 | 27028 ft | 426 kts | 279° |
| 2026-05-05 20:41 | 52.33033 | 11.95911 | 27375 ft | 429 kts | 279° |
| 2026-05-05 20:41 | 52.33657 | 11.91189 | 27712 ft | 430 kts | 277° |
| 2026-05-05 20:41 | 52.34155 | 11.86303 | 28054 ft | 431 kts | 274° |
| 2026-05-05 20:41 | 52.34483 | 11.81432 | 28379 ft | 432 kts | 271° |
| 2026-05-05 20:42 | 52.34650 | 11.76559 | 28695 ft | 432 kts | 269° |
| 2026-05-05 20:42 | 52.34759 | 11.71626 | 29015 ft | 434 kts | 268° |
| 2026-05-05 20:42 | 52.34861 | 11.66703 | 29423 ft | 433 kts | 268° |
| 2026-05-05 20:42 | 52.34960 | 11.61768 | 29852 ft | 432 kts | 268° |
| 2026-05-05 20:43 | 52.35058 | 11.56906 | 30283 ft | 430 kts | 268° |
| 2026-05-05 20:43 | 52.35154 | 11.52026 | 30715 ft | 429 kts | 268° |
| 2026-05-05 20:43 | 52.35249 | 11.47177 | 31083 ft | 428 kts | 268° |
| 2026-05-05 20:43 | 52.35339 | 11.42330 | 31436 ft | 428 kts | 267° |
| 2026-05-05 20:44 | 52.35429 | 11.37476 | 31786 ft | 427 kts | 267° |
| 2026-05-05 20:44 | 52.35518 | 11.32599 | 32184 ft | 425 kts | 266° |
| 2026-05-05 20:44 | 52.35601 | 11.27830 | 32547 ft | 424 kts | 266° |
| 2026-05-05 20:44 | 52.35683 | 11.23012 | 32835 ft | 424 kts | 266° |
| 2026-05-05 20:45 | 52.35845 | 11.13360 | 33400 ft | 424 kts | 266° |
| 2026-05-05 20:45 | 52.35921 | 11.08606 | 33734 ft | 422 kts | 265° |
| 2026-05-05 20:45 | 52.35997 | 11.03840 | 34042 ft | 421 kts | 265° |
| 2026-05-05 20:46 | 52.36068 | 10.99031 | 34253 ft | 422 kts | 265° |
| 2026-05-05 20:46 | 52.36137 | 10.94256 | 34449 ft | 423 kts | 265° |
| 2026-05-05 20:46 | 52.36207 | 10.89463 | 34625 ft | 424 kts | 265° |
| 2026-05-05 20:46 | 52.36209 | 10.84668 | 34820 ft | 422 kts | 262° |
| 2026-05-05 20:47 | 52.36052 | 10.79956 | 34996 ft | 419 kts | 259° |
| 2026-05-05 20:47 | 52.35733 | 10.75252 | 35161 ft | 417 kts | 256° |
| 2026-05-05 20:47 | 52.35254 | 10.70557 | 35286 ft | 416 kts | 253° |
| 2026-05-05 20:47 | 52.34698 | 10.65927 | 35375 ft | 417 kts | 253° |
| 2026-05-05 20:48 | 52.34138 | 10.61307 | 35485 ft | 418 kts | 253° |
| 2026-05-05 20:48 | 52.33573 | 10.56638 | 35608 ft | 419 kts | 253° |
| 2026-05-05 20:48 | 52.33006 | 10.52004 | 35710 ft | 420 kts | 253° |
| 2026-05-05 20:48 | 52.32431 | 10.47309 | 35813 ft | 421 kts | 254° |
| 2026-05-05 20:49 | 52.31289 | 10.37965 | 35852 ft | 423 kts | 253° |
| 2026-05-05 20:49 | 52.30129 | 10.28570 | 35855 ft | 422 kts | 252° |
| 2026-05-05 20:50 | 52.28965 | 10.19216 | 35854 ft | 423 kts | 253° |
| 2026-05-05 20:50 | 52.27794 | 10.09855 | 35853 ft | 422 kts | 252° |
| 2026-05-05 20:51 | 52.26614 | 10.00506 | 35847 ft | 422 kts | 252° |
| 2026-05-05 20:51 | 52.25488 | 9.91054 | 35853 ft | 426 kts | 255° |
| 2026-05-05 20:52 | 52.24896 | 9.81441 | 35862 ft | 431 kts | 261° |
| 2026-05-05 20:52 | 52.24635 | 9.71709 | 35862 ft | 432 kts | 261° |
| 2026-05-05 20:53 | 52.24374 | 9.61891 | 35860 ft | 433 kts | 261° |
| 2026-05-05 20:53 | 52.24103 | 9.52072 | 35857 ft | 435 kts | 261° |
| 2026-05-05 20:54 | 52.23819 | 9.42267 | 35860 ft | 434 kts | 261° |
| 2026-05-05 20:54 | 52.23529 | 9.32444 | 35860 ft | 434 kts | 260° |
| 2026-05-05 20:55 | 52.23218 | 9.22675 | 35856 ft | 436 kts | 260° |
| 2026-05-05 20:55 | 52.22847 | 9.12815 | 35856 ft | 435 kts | 260° |
| 2026-05-05 20:56 | 52.22465 | 9.02948 | 35853 ft | 435 kts | 259° |
| 2026-05-05 20:56 | 52.22077 | 8.93130 | 35849 ft | 436 kts | 259° |
| 2026-05-05 20:57 | 52.21682 | 8.83346 | 35849 ft | 435 kts | 259° |
| 2026-05-05 20:57 | 52.21278 | 8.73539 | 35849 ft | 438 kts | 260° |
| 2026-05-05 20:58 | 52.20864 | 8.63655 | 35847 ft | 439 kts | 260° |
| 2026-05-05 20:58 | 52.20443 | 8.53768 | 35847 ft | 439 kts | 259° |
| 2026-05-05 20:59 | 52.20014 | 8.43878 | 35847 ft | 439 kts | 260° |
| 2026-05-05 20:59 | 52.19569 | 8.33892 | 35844 ft | 439 kts | 259° |
| 2026-05-05 21:00 | 52.19121 | 8.23952 | 35844 ft | 439 kts | 259° |
| 2026-05-05 21:00 | 52.18665 | 8.14080 | 35846 ft | 440 kts | 259° |
| 2026-05-05 21:01 | 52.18200 | 8.04174 | 35855 ft | 440 kts | 259° |
| 2026-05-05 21:01 | 52.17724 | 7.94203 | 35855 ft | 440 kts | 260° |
| 2026-05-05 21:02 | 52.17244 | 7.84317 | 35864 ft | 442 kts | 259° |
| 2026-05-05 21:02 | 52.16753 | 7.74362 | 35869 ft | 442 kts | 259° |
| 2026-05-05 21:03 | 52.16254 | 7.64430 | 35872 ft | 441 kts | 260° |
| 2026-05-05 21:03 | 52.15742 | 7.54460 | 35874 ft | 442 kts | 260° |
| 2026-05-05 21:04 | 52.15224 | 7.44481 | 35876 ft | 441 kts | 260° |
| 2026-05-05 21:04 | 52.14699 | 7.34550 | 35874 ft | 442 kts | 259° |
| 2026-05-05 21:05 | 52.14162 | 7.24563 | 35877 ft | 441 kts | 259° |
| 2026-05-05 21:05 | 52.13621 | 7.14659 | 35879 ft | 442 kts | 259° |
| 2026-05-05 21:06 | 52.13072 | 7.04739 | 35879 ft | 443 kts | 260° |
| 2026-05-05 21:06 | 52.12509 | 6.94736 | 35872 ft | 444 kts | 260° |
| 2026-05-05 21:07 | 52.11940 | 6.84772 | 35866 ft | 444 kts | 260° |
| 2026-05-05 21:07 | 52.11362 | 6.74805 | 35869 ft | 445 kts | 259° |
| 2026-05-05 21:08 | 52.10772 | 6.64794 | 35872 ft | 446 kts | 260° |
| 2026-05-05 21:08 | 52.10175 | 6.54787 | 35877 ft | 446 kts | 260° |
| 2026-05-05 21:09 | 52.09567 | 6.44761 | 35881 ft | 446 kts | 260° |
| 2026-05-05 21:09 | 52.08956 | 6.34806 | 35886 ft | 446 kts | 259° |
| 2026-05-05 21:10 | 52.08330 | 6.24768 | 35886 ft | 446 kts | 259° |
| 2026-05-05 21:10 | 52.07703 | 6.14821 | 35887 ft | 447 kts | 259° |
| 2026-05-05 21:11 | 52.07064 | 6.04823 | 35897 ft | 446 kts | 259° |
| 2026-05-05 21:11 | 52.06415 | 5.94837 | 35895 ft | 446 kts | 260° |
| 2026-05-05 21:12 | 52.05756 | 5.84824 | 35897 ft | 445 kts | 260° |
| 2026-05-05 21:12 | 52.05098 | 5.74941 | 35901 ft | 445 kts | 260° |
| 2026-05-05 21:13 | 52.04422 | 5.64916 | 35905 ft | 444 kts | 259° |
| 2026-05-05 21:13 | 52.03739 | 5.54948 | 35899 ft | 445 kts | 260° |
| 2026-05-05 21:14 | 52.03053 | 5.45039 | 35900 ft | 444 kts | 260° |
| 2026-05-05 21:14 | 52.02356 | 5.35064 | 35908 ft | 444 kts | 260° |
| 2026-05-05 21:15 | 52.01655 | 5.25183 | 35909 ft | 443 kts | 259° |
| 2026-05-05 21:15 | 52.00944 | 5.15268 | 35907 ft | 442 kts | 259° |
| 2026-05-05 21:16 | 52.00225 | 5.05405 | 35913 ft | 442 kts | 259° |
| 2026-05-05 21:16 | 51.99502 | 4.95560 | 35918 ft | 441 kts | 259° |
| 2026-05-05 21:17 | 51.98763 | 4.85636 | 35913 ft | 442 kts | 259° |
| 2026-05-05 21:17 | 51.98023 | 4.75807 | 35917 ft | 443 kts | 260° |
| 2026-05-05 21:18 | 51.97267 | 4.65881 | 35919 ft | 443 kts | 260° |
| 2026-05-05 21:18 | 51.96505 | 4.55979 | 35921 ft | 443 kts | 260° |
| 2026-05-05 21:19 | 51.95735 | 4.46078 | 35913 ft | 442 kts | 260° |
| 2026-05-05 21:19 | 51.94961 | 4.36235 | 35924 ft | 443 kts | 260° |
| 2026-05-05 21:20 | 51.94173 | 4.26331 | 35920 ft | 443 kts | 259° |
| 2026-05-05 21:20 | 51.93376 | 4.16424 | 35911 ft | 444 kts | 259° |
| 2026-05-05 21:21 | 51.92576 | 4.06582 | 35913 ft | 445 kts | 259° |
| 2026-05-05 21:21 | 51.91761 | 3.96670 | 35924 ft | 445 kts | 259° |
| 2026-05-05 21:22 | 51.90944 | 3.86819 | 35936 ft | 444 kts | 259° |
| 2026-05-05 21:22 | 51.90116 | 3.76940 | 35938 ft | 444 kts | 259° |
| 2026-05-05 21:23 | 51.89279 | 3.67075 | 35948 ft | 444 kts | 259° |
| 2026-05-05 21:23 | 51.88430 | 3.57164 | 35946 ft | 444 kts | 260° |
| 2026-05-05 21:24 | 51.87580 | 3.47329 | 35953 ft | 444 kts | 260° |
| 2026-05-05 21:24 | 51.86720 | 3.37493 | 35955 ft | 443 kts | 260° |
| 2026-05-05 21:25 | 51.85848 | 3.27627 | 35955 ft | 443 kts | 259° |
| 2026-05-05 21:25 | 51.84979 | 3.17816 | 35945 ft | 443 kts | 260° |
| 2026-05-05 21:26 | 51.84314 | 3.07881 | 35959 ft | 444 kts | 262° |
| 2026-05-05 21:26 | 51.83681 | 2.98056 | 35954 ft | 443 kts | 262° |
| 2026-05-05 21:27 | 51.83032 | 2.88176 | 35935 ft | 442 kts | 262° |
| 2026-05-05 21:27 | 51.82372 | 2.78287 | 35851 ft | 444 kts | 261° |
| 2026-05-05 21:28 | 51.82039 | 2.73366 | 35454 ft | 447 kts | 261° |
| 2026-05-05 21:28 | 51.81699 | 2.68363 | 34744 ft | 451 kts | 261° |
| 2026-05-05 21:28 | 51.81354 | 2.63319 | 33884 ft | 454 kts | 261° |
| 2026-05-05 21:28 | 51.81011 | 2.58333 | 33162 ft | 453 kts | 261° |
| 2026-05-05 21:29 | 51.80660 | 2.53270 | 32431 ft | 453 kts | 261° |
| 2026-05-05 21:29 | 51.80310 | 2.48257 | 31708 ft | 453 kts | 261° |
| 2026-05-05 21:29 | 51.79956 | 2.43222 | 30981 ft | 453 kts | 261° |
| 2026-05-05 21:29 | 51.79601 | 2.38208 | 30248 ft | 453 kts | 261° |
| 2026-05-05 21:30 | 51.79240 | 2.33177 | 29507 ft | 452 kts | 261° |
| 2026-05-05 21:30 | 51.78877 | 2.28141 | 28744 ft | 453 kts | 261° |
| 2026-05-05 21:30 | 51.78520 | 2.23199 | 28195 ft | 447 kts | 261° |
| 2026-05-05 21:30 | 51.78194 | 2.18239 | 27742 ft | 441 kts | 263° |
| 2026-05-05 21:31 | 51.77911 | 2.13360 | 27261 ft | 436 kts | 263° |
| 2026-05-05 21:31 | 51.77638 | 2.08550 | 26814 ft | 430 kts | 263° |
| 2026-05-05 21:31 | 51.77364 | 2.03778 | 26597 ft | 418 kts | 264° |
| 2026-05-05 21:31 | 51.77095 | 1.99171 | 26449 ft | 412 kts | 264° |
| 2026-05-05 21:32 | 51.76825 | 1.94626 | 26276 ft | 412 kts | 264° |
| 2026-05-05 21:32 | 51.76547 | 1.90006 | 26101 ft | 411 kts | 264° |
| 2026-05-05 21:32 | 51.76272 | 1.85485 | 25931 ft | 410 kts | 264° |
| 2026-05-05 21:32 | 51.75991 | 1.80902 | 25758 ft | 408 kts | 264° |
| 2026-05-05 21:33 | 51.75712 | 1.76379 | 25594 ft | 408 kts | 264° |
| 2026-05-05 21:33 | 51.75431 | 1.71865 | 25429 ft | 406 kts | 264° |
| 2026-05-05 21:33 | 51.75149 | 1.67344 | 25258 ft | 405 kts | 264° |
| 2026-05-05 21:33 | 51.74863 | 1.62798 | 25065 ft | 405 kts | 264° |
| 2026-05-05 21:34 | 51.74581 | 1.58328 | 24581 ft | 405 kts | 264° |
| 2026-05-05 21:34 | 51.74295 | 1.53828 | 24146 ft | 400 kts | 264° |
| 2026-05-05 21:34 | 51.74012 | 1.49438 | 23678 ft | 398 kts | 264° |
| 2026-05-05 21:34 | 51.73727 | 1.45049 | 23231 ft | 394 kts | 265° |
| 2026-05-05 21:35 | 51.73443 | 1.40678 | 22780 ft | 390 kts | 265° |
| 2026-05-05 21:35 | 51.73164 | 1.36390 | 22301 ft | 387 kts | 265° |
| 2026-05-05 21:35 | 51.72883 | 1.32070 | 21827 ft | 384 kts | 264° |
| 2026-05-05 21:35 | 51.72600 | 1.27765 | 21363 ft | 381 kts | 264° |
| 2026-05-05 21:36 | 51.72324 | 1.23576 | 20912 ft | 378 kts | 264° |
| 2026-05-05 21:36 | 51.72046 | 1.19402 | 20454 ft | 375 kts | 264° |
| 2026-05-05 21:36 | 51.71767 | 1.15244 | 19987 ft | 373 kts | 264° |
| 2026-05-05 21:36 | 51.71489 | 1.11113 | 19518 ft | 370 kts | 264° |
| 2026-05-05 21:37 | 51.71214 | 1.07048 | 19054 ft | 368 kts | 264° |
| 2026-05-05 21:37 | 51.70935 | 1.02978 | 18584 ft | 365 kts | 264° |
| 2026-05-05 21:37 | 51.70656 | 0.98917 | 18098 ft | 363 kts | 264° |
| 2026-05-05 21:37 | 51.70381 | 0.94928 | 17621 ft | 361 kts | 264° |
| 2026-05-05 21:38 | 51.70102 | 0.90893 | 17154 ft | 358 kts | 264° |
| 2026-05-05 21:38 | 51.69830 | 0.86965 | 16715 ft | 355 kts | 264° |
| 2026-05-05 21:38 | 51.69558 | 0.83045 | 16262 ft | 352 kts | 264° |
| 2026-05-05 21:38 | 51.69282 | 0.79126 | 15799 ft | 349 kts | 264° |
| 2026-05-05 21:39 | 51.69011 | 0.75294 | 15389 ft | 346 kts | 264° |
| 2026-05-05 21:39 | 51.68741 | 0.71491 | 14955 ft | 343 kts | 264° |
| 2026-05-05 21:39 | 51.68470 | 0.67680 | 14472 ft | 340 kts | 264° |
| 2026-05-05 21:39 | 51.68201 | 0.63912 | 14008 ft | 339 kts | 264° |
| 2026-05-05 21:40 | 51.67932 | 0.60177 | 13571 ft | 337 kts | 265° |
| 2026-05-05 21:40 | 51.67663 | 0.56458 | 13108 ft | 335 kts | 265° |
| 2026-05-05 21:40 | 51.67394 | 0.52747 | 12667 ft | 333 kts | 265° |
| 2026-05-05 21:40 | 51.67127 | 0.49074 | 12218 ft | 331 kts | 265° |
| 2026-05-05 21:41 | 51.66861 | 0.45426 | 11791 ft | 329 kts | 265° |
| 2026-05-05 21:41 | 51.66597 | 0.41823 | 11434 ft | 325 kts | 265° |
| 2026-05-05 21:41 | 51.66329 | 0.38187 | 11254 ft | 327 kts | 265° |
| 2026-05-05 21:41 | 51.66062 | 0.34574 | 11049 ft | 327 kts | 264° |
| 2026-05-05 21:42 | 51.65792 | 0.30950 | 10877 ft | 326 kts | 264° |
| 2026-05-05 21:42 | 51.65519 | 0.27292 | 10712 ft | 326 kts | 264° |
| 2026-05-05 21:42 | 51.65250 | 0.23729 | 10511 ft | 325 kts | 264° |
| 2026-05-05 21:42 | 51.64978 | 0.20119 | 10361 ft | 324 kts | 264° |
| 2026-05-05 21:43 | 51.64707 | 0.16541 | 10164 ft | 323 kts | 264° |
| 2026-05-05 21:43 | 51.64460 | 0.12985 | 9973 ft | 309 kts | 266° |
| 2026-05-05 21:43 | 51.64274 | 0.09638 | 9806 ft | 294 kts | 266° |
| 2026-05-05 21:43 | 51.64107 | 0.06464 | 9629 ft | 279 kts | 267° |
| 2026-05-05 21:44 | 51.63943 | 0.03377 | 9466 ft | 276 kts | 267° |
| 2026-05-05 21:44 | 51.63781 | 0.00342 | 9251 ft | 270 kts | 267° |
| 2026-05-05 21:44 | 51.63618 | -0.02616 | 9108 ft | 261 kts | 267° |
| 2026-05-05 21:44 | 51.63457 | -0.05508 | 8921 ft | 255 kts | 267° |
| 2026-05-05 21:45 | 51.63299 | -0.08340 | 8757 ft | 255 kts | 267° |
| 2026-05-05 21:45 | 51.63140 | -0.11171 | 8555 ft | 254 kts | 267° |
| 2026-05-05 21:45 | 51.62980 | -0.13996 | 8368 ft | 254 kts | 267° |
| 2026-05-05 21:45 | 51.62820 | -0.16809 | 8178 ft | 254 kts | 267° |
| 2026-05-05 21:46 | 51.62657 | -0.19650 | 8031 ft | 253 kts | 267° |
| 2026-05-05 21:46 | 51.62496 | -0.22444 | 7815 ft | 252 kts | 267° |
| 2026-05-05 21:46 | 51.62334 | -0.25256 | 7637 ft | 252 kts | 267° |
| 2026-05-05 21:46 | 51.62172 | -0.28045 | 7543 ft | 251 kts | 267° |
| 2026-05-05 21:47 | 51.62008 | -0.30863 | 7468 ft | 251 kts | 267° |
| 2026-05-05 21:47 | 51.61846 | -0.33617 | 7388 ft | 251 kts | 267° |
| 2026-05-05 21:47 | 51.61681 | -0.36430 | 7309 ft | 251 kts | 267° |
| 2026-05-05 21:47 | 51.61517 | -0.39215 | 7228 ft | 251 kts | 267° |
| 2026-05-05 21:48 | 51.61352 | -0.41989 | 7154 ft | 251 kts | 267° |
| 2026-05-05 21:48 | 51.61187 | -0.44773 | 7079 ft | 251 kts | 267° |
| 2026-05-05 21:48 | 51.61018 | -0.47595 | 7034 ft | 251 kts | 267° |
| 2026-05-05 21:48 | 51.60852 | -0.50369 | 7021 ft | 251 kts | 267° |
| 2026-05-05 21:49 | 51.60684 | -0.53149 | 7017 ft | 251 kts | 267° |
| 2026-05-05 21:49 | 51.60515 | -0.55948 | 7016 ft | 250 kts | 267° |
| 2026-05-05 21:49 | 51.60348 | -0.58681 | 7014 ft | 250 kts | 267° |
| 2026-05-05 21:49 | 51.60175 | -0.61523 | 7016 ft | 251 kts | 267° |
| 2026-05-05 21:50 | 51.60006 | -0.64296 | 7017 ft | 251 kts | 267° |
| 2026-05-05 21:50 | 51.59835 | -0.67070 | 6960 ft | 252 kts | 266° |
| 2026-05-05 21:50 | 51.59661 | -0.69892 | 6563 ft | 254 kts | 266° |
| 2026-05-05 21:50 | 51.59488 | -0.72695 | 6199 ft | 254 kts | 266° |
| 2026-05-05 21:51 | 51.59307 | -0.75502 | 6010 ft | 247 kts | 264° |
| 2026-05-05 21:51 | 51.58756 | -0.78039 | 5745 ft | 246 kts | 234° |
| 2026-05-05 21:51 | 51.57480 | -0.79785 | 5460 ft | 243 kts | 202° |
| 2026-05-05 21:51 | 51.55851 | -0.80254 | 5171 ft | 238 kts | 176° |
| 2026-05-05 21:52 | 51.52503 | -0.79661 | 4121 ft | 245 kts | 171° |
| 2026-05-05 21:52 | 51.50822 | -0.79383 | 3699 ft | 240 kts | 167° |
| 2026-05-05 21:52 | 51.49352 | -0.78349 | 3256 ft | 226 kts | 133° |
| 2026-05-05 21:53 | 51.48321 | -0.76595 | 3013 ft | 213 kts | 124° |
| 2026-05-05 21:53 | 51.47725 | -0.74567 | 3039 ft | 198 kts | 97° |
| 2026-05-05 21:53 | 51.47604 | -0.72383 | 3083 ft | 199 kts | 86° |
| 2026-05-05 21:53 | 51.47655 | -0.70198 | 2790 ft | 194 kts | 83° |
| 2026-05-05 21:54 | 51.47710 | -0.68068 | 2502 ft | 189 kts | 84° |
| 2026-05-05 21:54 | 51.47731 | -0.66013 | 2218 ft | 176 kts | 85° |
| 2026-05-05 21:54 | 51.47733 | -0.64104 | 1977 ft | 169 kts | 85° |
| 2026-05-05 21:54 | 51.47730 | -0.62316 | 1743 ft | 155 kts | 84° |
| 2026-05-05 21:55 | 51.47727 | -0.60669 | 1573 ft | 141 kts | 84° |
| 2026-05-05 21:55 | 51.47727 | -0.59155 | 1380 ft | 133 kts | 84° |
| 2026-05-05 21:55 | 51.47731 | -0.57672 | 1213 ft | 132 kts | 85° |
| 2026-05-05 21:55 | 51.47723 | -0.56214 | 1061 ft | 132 kts | 85° |
| 2026-05-05 21:56 | 51.47718 | -0.54739 | 890 ft | 132 kts | 85° |
| 2026-05-05 21:56 | 51.47732 | -0.53277 | 704 ft | 132 kts | 86° |
| 2026-05-05 21:56 | 51.47737 | -0.51800 | 513 ft | 133 kts | 85° |
| 2026-05-05 21:56 | 51.47744 | -0.50321 | 336 ft | 133 kts | 86° |
| 2026-05-05 21:57 | 51.47746 | -0.48844 | 165 ft | 134 kts | 86° |
| 2026-05-05 21:57 | 51.47749 | -0.47373 | 94 ft | 123 kts | 87° |
| 2026-05-05 21:57 | 51.47758 | -0.46259 | 92 ft | 75 kts | 89° |
| 2026-05-05 21:57 | 51.47760 | -0.45692 | 92 ft | 34 kts | 89° |
| 2026-05-05 21:58 | 51.47748 | -0.45501 | 91 ft | 11 kts | 128° |
| 2026-05-05 21:58 | 51.47682 | -0.45468 | 91 ft | 6 kts | 180° |
| 2026-05-05 21:58 | 51.47634 | -0.45468 | 91 ft | 7 kts | 179° |
| 2026-05-05 21:58 | 51.47596 | -0.45511 | 91 ft | 8 kts | 261° |
| 2026-05-05 21:59 | 51.47595 | -0.45608 | 91 ft | 9 kts | 269° |
| 2026-05-05 21:59 | 51.47596 | -0.45721 | 91 ft | 11 kts | 270° |
| 2026-05-05 21:59 | 51.47595 | -0.45861 | 91 ft | 13 kts | 268° |
| 2026-05-05 21:59 | 51.47594 | -0.46004 | 91 ft | 8 kts | 270° |
| 2026-05-05 22:00 | 51.47594 | -0.46114 | 91 ft | 11 kts | 270° |
| 2026-05-05 22:00 | 51.47593 | -0.46267 | 91 ft | 15 kts | 269° |
| 2026-05-05 22:00 | 51.47592 | -0.46459 | 91 ft | 18 kts | 270° |
| 2026-05-05 22:00 | 51.47592 | -0.46669 | 91 ft | 19 kts | 269° |
| 2026-05-05 22:01 | 51.47586 | -0.46849 | 91 ft | 14 kts | 256° |
| 2026-05-05 22:01 | 51.47513 | -0.46922 | 91 ft | 14 kts | 166° |
| 2026-05-05 22:01 | 51.47411 | -0.46882 | 91 ft | 15 kts | 166° |
| 2026-05-05 22:01 | 51.47306 | -0.46868 | 91 ft | 15 kts | 179° |
| 2026-05-05 22:02 | 51.47200 | -0.46867 | 91 ft | 15 kts | 179° |
| 2026-05-05 22:02 | 51.47091 | -0.46865 | 91 ft | 15 kts | 179° |
| 2026-05-05 22:02 | 51.46981 | -0.46865 | 91 ft | 15 kts | 179° |
| 2026-05-05 22:02 | 51.46869 | -0.46864 | 91 ft | 16 kts | 179° |
| 2026-05-05 22:03 | 51.46771 | -0.46862 | 91 ft | 9 kts | 181° |
| 2026-05-05 22:03 | 51.46748 | -0.46938 | 91 ft | 9 kts | 270° |
| 2026-05-05 22:03 | 51.46746 | -0.47049 | 91 ft | 10 kts | 270° |
| 2026-05-05 22:03 | 51.46746 | -0.47159 | 91 ft | 2 kts | 270° |
| 2026-05-05 22:04 | 51.46751 | -0.47187 | 91 ft | 2 kts | 316° |
| 2026-05-05 22:04 | 51.46775 | -0.47196 | 91 ft | 4 kts | 356° |
| 2026-05-05 22:04 | 51.46808 | -0.47195 | 91 ft | 5 kts | 359° |
| 2026-05-05 22:04 | 51.46829 | -0.47196 | 91 ft | 2 kts | 359° |
| 2026-05-05 22:05 | 51.46830 | -0.47196 | 91 ft | 0 kts | 359° |